sensor_id;sensor_type;location;lat;lon;timestamp;pressure;altitude;pressure_sealevel;temperature;humidity
67099;BME280;54288;53.046;5.668;2022-07-06T00:01:37;102679.44;;;14.92;70.12
67099;BME280;54288;53.046;5.668;2022-07-06T00:04:04;102682.97;;;14.93;70.52
67099;BME280;54288;53.046;5.668;2022-07-06T00:06:30;102679.44;;;14.94;69.88
67099;BME280;54288;53.046;5.668;2022-07-06T00:08:56;102682.03;;;14.95;69.84
67099;BME280;54288;53.046;5.668;2022-07-06T00:11:22;102675.97;;;14.90;69.92
67099;BME280;54288;53.046;5.668;2022-07-06T00:13:49;102682.06;;;14.94;70.11
67099;BME280;54288;53.046;5.668;2022-07-06T00:16:15;102678.56;;;14.93;69.98
67099;BME280;54288;53.046;5.668;2022-07-06T00:18:41;102675.91;;;14.95;70.79
67099;BME280;54288;53.046;5.668;2022-07-06T00:21:06;102676.81;;;14.92;69.65
67099;BME280;54288;53.046;5.668;2022-07-06T00:23:32;102675.06;;;14.90;69.90
67099;BME280;54288;53.046;5.668;2022-07-06T00:25:58;102667.16;;;14.90;70.08
67099;BME280;54288;53.046;5.668;2022-07-06T00:28:23;102670.69;;;14.87;69.84
67099;BME280;54288;53.046;5.668;2022-07-06T00:30:49;102667.16;;;14.87;70.02
67099;BME280;54288;53.046;5.668;2022-07-06T00:33:15;102668.94;;;14.86;70.09
67099;BME280;54288;53.046;5.668;2022-07-06T00:35:41;102664.56;;;14.84;70.17
67099;BME280;54288;53.046;5.668;2022-07-06T00:38:07;102674.22;;;14.85;70.74
67099;BME280;54288;53.046;5.668;2022-07-06T00:40:33;102666.31;;;14.85;70.63
67099;BME280;54288;53.046;5.668;2022-07-06T00:42:59;102665.47;;;14.83;70.04
67099;BME280;54288;53.046;5.668;2022-07-06T00:45:25;102665.44;;;14.86;71.14
67099;BME280;54288;53.046;5.668;2022-07-06T00:47:52;102669.00;;;14.82;70.07
67099;BME280;54288;53.046;5.668;2022-07-06T00:50:18;102662.00;;;14.79;70.11
67099;BME280;54288;53.046;5.668;2022-07-06T00:52:49;102673.41;;;14.80;70.28
67099;BME280;54288;53.046;5.668;2022-07-06T00:55:18;102672.53;;;14.79;70.14
67099;BME280;54288;53.046;5.668;2022-07-06T00:57:45;102672.50;;;14.82;70.43
67099;BME280;54288;53.046;5.668;2022-07-06T01:00:14;102676.03;;;14.84;70.29
67099;BME280;54288;53.046;5.668;2022-07-06T01:02:42;102674.22;;;14.85;70.04
67099;BME280;54288;53.046;5.668;2022-07-06T01:05:10;102674.22;;;14.85;70.18
67099;BME280;54288;53.046;5.668;2022-07-06T01:07:38;102679.50;;;14.88;69.88
67099;BME280;54288;53.046;5.668;2022-07-06T01:10:05;102676.88;;;14.88;70.27
67099;BME280;54288;53.046;5.668;2022-07-06T01:12:34;102675.97;;;14.86;70.76
67099;BME280;54288;53.046;5.668;2022-07-06T01:15:03;102676.03;;;14.84;71.24
67099;BME280;54288;53.046;5.668;2022-07-06T01:17:30;102668.13;;;14.81;72.17
67099;BME280;54288;53.046;5.668;2022-07-06T01:19:56;102665.47;;;14.83;72.55
67099;BME280;54288;53.046;5.668;2022-07-06T01:22:22;102668.13;;;14.81;71.59
67099;BME280;54288;53.046;5.668;2022-07-06T01:24:48;102665.47;;;14.80;72.05
67099;BME280;54288;53.046;5.668;2022-07-06T01:27:13;102668.13;;;14.81;72.48
67099;BME280;54288;53.046;5.668;2022-07-06T01:29:39;102662.84;;;14.81;72.14
67099;BME280;54288;53.046;5.668;2022-07-06T01:32:05;102660.22;;;14.80;72.61
67099;BME280;54288;53.046;5.668;2022-07-06T01:34:31;102660.22;;;14.80;72.61
67099;BME280;54288;53.046;5.668;2022-07-06T01:36:57;102665.53;;;14.77;72.53
67099;BME280;54288;53.046;5.668;2022-07-06T01:39:23;102666.41;;;14.76;72.27
67099;BME280;54288;53.046;5.668;2022-07-06T01:41:48;102661.16;;;14.76;72.63
67099;BME280;54288;53.046;5.668;2022-07-06T01:44:14;102658.47;;;14.77;72.09
67099;BME280;54288;53.046;5.668;2022-07-06T01:46:40;102658.50;;;14.76;72.27
67099;BME280;54288;53.046;5.668;2022-07-06T01:49:08;102659.38;;;14.76;72.38
67099;BME280;54288;53.046;5.668;2022-07-06T01:51:34;102663.78;;;14.76;72.47
67099;BME280;54288;53.046;5.668;2022-07-06T01:54:00;102662.00;;;14.75;72.62
67099;BME280;54288;53.046;5.668;2022-07-06T01:56:26;102659.41;;;14.73;72.64
67099;BME280;54288;53.046;5.668;2022-07-06T01:58:57;102662.06;;;14.72;73.30
67099;BME280;54288;53.046;5.668;2022-07-06T02:01:23;102662.06;;;14.70;72.37
67099;BME280;54288;53.046;5.668;2022-07-06T02:03:49;102660.31;;;14.69;72.88
67099;BME280;54288;53.046;5.668;2022-07-06T02:06:16;102660.31;;;14.68;73.26
67099;BME280;54288;53.046;5.668;2022-07-06T02:08:45;102657.69;;;14.68;72.56
67099;BME280;54288;53.046;5.668;2022-07-06T02:11:11;102664.75;;;14.67;72.02
67099;BME280;54288;53.046;5.668;2022-07-06T02:13:39;102665.63;;;14.65;72.89
67099;BME280;54288;53.046;5.668;2022-07-06T02:16:08;102666.50;;;14.65;72.49
67099;BME280;54288;53.046;5.668;2022-07-06T02:18:35;102670.91;;;14.65;72.21
67099;BME280;54288;53.046;5.668;2022-07-06T02:21:04;102673.53;;;14.65;71.43
67099;BME280;54288;53.046;5.668;2022-07-06T02:23:29;102670.03;;;14.61;71.10
67099;BME280;54288;53.046;5.668;2022-07-06T02:25:56;102669.13;;;14.64;71.95
67099;BME280;54288;53.046;5.668;2022-07-06T02:28:23;102667.38;;;14.64;71.69
67099;BME280;54288;53.046;5.668;2022-07-06T02:30:49;102669.13;;;14.64;71.09
67099;BME280;54288;53.046;5.668;2022-07-06T02:33:15;102669.16;;;14.62;71.59
67099;BME280;54288;53.046;5.668;2022-07-06T02:35:41;102666.53;;;14.62;71.86
67099;BME280;54288;53.046;5.668;2022-07-06T02:38:09;102670.91;;;14.62;72.16
67099;BME280;54288;53.046;5.668;2022-07-06T02:40:36;102670.03;;;14.64;72.13
67099;BME280;54288;53.046;5.668;2022-07-06T02:43:04;102662.09;;;14.66;72.32
67099;BME280;54288;53.046;5.668;2022-07-06T02:45:31;102659.47;;;14.64;71.84
67099;BME280;54288;53.046;5.668;2022-07-06T02:47:57;102660.34;;;14.65;71.60
67099;BME280;54288;53.046;5.668;2022-07-06T02:50:24;102660.34;;;14.65;71.24
67099;BME280;54288;53.046;5.668;2022-07-06T02:52:52;102658.59;;;14.64;70.73
67099;BME280;54288;53.046;5.668;2022-07-06T02:55:18;102670.91;;;14.62;71.62
67099;BME280;54288;53.046;5.668;2022-07-06T02:57:44;102661.28;;;14.59;70.92
67099;BME280;54288;53.046;5.668;2022-07-06T03:00:12;102653.41;;;14.52;71.91
67099;BME280;54288;53.046;5.668;2022-07-06T03:02:39;102663.16;;;14.45;71.90
67099;BME280;54288;53.046;5.668;2022-07-06T03:05:06;102660.56;;;14.35;71.23
67099;BME280;54288;53.046;5.668;2022-07-06T03:07:33;102650.97;;;14.31;70.93
67099;BME280;54288;53.046;5.668;2022-07-06T03:09:58;102659.72;;;14.30;71.27
67099;BME280;54288;53.046;5.668;2022-07-06T03:12:25;102665.97;;;14.20;71.42
67099;BME280;54288;53.046;5.668;2022-07-06T03:14:51;102659.81;;;14.16;71.07
67099;BME280;54288;53.046;5.668;2022-07-06T03:17:17;102666.88;;;14.11;70.97
67099;BME280;54288;53.046;5.668;2022-07-06T03:19:43;102667.75;;;14.06;71.77
67099;BME280;54288;53.046;5.668;2022-07-06T03:22:09;102671.28;;;14.03;72.03
67099;BME280;54288;53.046;5.668;2022-07-06T03:24:35;102669.56;;;13.96;71.62
67099;BME280;54288;53.046;5.668;2022-07-06T03:27:01;102657.34;;;13.85;72.35
67099;BME280;54288;53.046;5.668;2022-07-06T03:29:27;102673.13;;;13.86;71.93
67099;BME280;54288;53.046;5.668;2022-07-06T03:31:53;102671.38;;;13.84;72.30
67099;BME280;54288;53.046;5.668;2022-07-06T03:34:20;102673.16;;;13.85;73.66
67099;BME280;54288;53.046;5.668;2022-07-06T03:36:46;102667.88;;;13.85;72.00
67099;BME280;54288;53.046;5.668;2022-07-06T03:39:11;102659.13;;;13.77;72.64
67099;BME280;54288;53.046;5.668;2022-07-06T03:41:38;102667.06;;;13.72;73.84
67099;BME280;54288;53.046;5.668;2022-07-06T03:44:06;102664.47;;;13.65;73.11
67099;BME280;54288;53.046;5.668;2022-07-06T03:46:32;102668.00;;;13.56;73.49
67099;BME280;54288;53.046;5.668;2022-07-06T03:48:59;102671.53;;;13.51;74.02
67099;BME280;54288;53.046;5.668;2022-07-06T03:51:25;102674.19;;;13.42;73.92
67099;BME280;54288;53.046;5.668;2022-07-06T03:53:52;102681.22;;;13.37;74.48
67099;BME280;54288;53.046;5.668;2022-07-06T03:56:18;102683.88;;;13.34;74.93
67099;BME280;54288;53.046;5.668;2022-07-06T03:59:00;102685.63;;;13.32;75.17
67099;BME280;54288;53.046;5.668;2022-07-06T04:01:28;102684.75;;;13.27;75.81
67099;BME280;54288;53.046;5.668;2022-07-06T04:03:56;102684.78;;;13.24;75.58
67099;BME280;54288;53.046;5.668;2022-07-06T04:06:23;102679.50;;;13.21;75.96
67099;BME280;54288;53.046;5.668;2022-07-06T04:08:49;102674.28;;;13.19;75.04
67099;BME280;54288;53.046;5.668;2022-07-06T04:11:16;102678.63;;;13.19;75.17
67099;BME280;54288;53.046;5.668;2022-07-06T04:13:41;102685.66;;;13.14;75.07
67099;BME280;54288;53.046;5.668;2022-07-06T04:16:08;102689.16;;;13.16;75.69
67099;BME280;54288;53.046;5.668;2022-07-06T04:18:34;102689.16;;;13.20;76.27
67099;BME280;54288;53.046;5.668;2022-07-06T04:21:00;102697.06;;;13.28;75.10
67099;BME280;54288;53.046;5.668;2022-07-06T04:23:29;102691.75;;;13.37;74.91
67099;BME280;54288;53.046;5.668;2022-07-06T04:25:56;102698.75;;;13.44;74.21
67099;BME280;54288;53.046;5.668;2022-07-06T04:28:23;102689.09;;;13.50;73.60
67099;BME280;54288;53.046;5.668;2022-07-06T04:30:50;102687.31;;;13.57;73.37
67099;BME280;54288;53.046;5.668;2022-07-06T04:33:19;102682.00;;;13.66;73.46
67099;BME280;54288;53.046;5.668;2022-07-06T04:35:46;102676.72;;;13.75;72.85
67099;BME280;54288;53.046;5.668;2022-07-06T04:38:11;102673.16;;;13.85;73.97
67099;BME280;54288;53.046;5.668;2022-07-06T04:40:38;102676.63;;;13.90;72.88
67099;BME280;54288;53.046;5.668;2022-07-06T04:43:08;102680.06;;;14.02;72.47
67099;BME280;54288;53.046;5.668;2022-07-06T04:45:35;102677.41;;;14.10;72.59
67099;BME280;54288;53.046;5.668;2022-07-06T04:48:01;102684.38;;;14.17;72.26
67099;BME280;54288;53.046;5.668;2022-07-06T04:50:26;102675.63;;;14.22;72.31
67099;BME280;54288;53.046;5.668;2022-07-06T04:52:57;102679.91;;;14.32;72.12
67099;BME280;54288;53.046;5.668;2022-07-06T04:55:23;102686.88;;;14.42;71.57
67099;BME280;54288;53.046;5.668;2022-07-06T04:57:49;102685.97;;;14.48;71.88
67099;BME280;54288;53.046;5.668;2022-07-06T05:00:18;102685.03;;;14.55;71.49
67099;BME280;54288;53.046;5.668;2022-07-06T05:02:45;102678.84;;;14.60;72.09
67099;BME280;54288;53.046;5.668;2022-07-06T05:05:11;102678.81;;;14.65;72.50
67099;BME280;54288;53.046;5.668;2022-07-06T05:07:37;102677.88;;;14.72;72.46
67099;BME280;54288;53.046;5.668;2022-07-06T05:10:08;102682.22;;;14.77;72.27
67099;BME280;54288;53.046;5.668;2022-07-06T05:12:34;102682.16;;;14.83;72.08
67099;BME280;54288;53.046;5.668;2022-07-06T05:15:00;102682.03;;;14.95;72.52
67099;BME280;54288;53.046;5.668;2022-07-06T05:17:27;102650.53;;;14.82;71.35
67099;BME280;54288;53.046;5.668;2022-07-06T05:19:53;102682.81;;;15.09;71.28
67099;BME280;54288;53.046;5.668;2022-07-06T05:22:19;102680.13;;;15.12;71.53
67099;BME280;54288;53.046;5.668;2022-07-06T05:24:45;102682.63;;;15.26;71.38
67099;BME280;54288;53.046;5.668;2022-07-06T05:27:11;102685.22;;;15.33;71.20
67099;BME280;54288;53.046;5.668;2022-07-06T05:29:38;102679.91;;;15.36;70.47
67099;BME280;54288;53.046;5.668;2022-07-06T05:32:04;102684.31;;;15.36;70.78
67099;BME280;54288;53.046;5.668;2022-07-06T05:34:30;102686.94;;;15.39;71.53
67099;BME280;54288;53.046;5.668;2022-07-06T05:36:55;102689.63;;;15.33;70.65
67099;BME280;54288;53.046;5.668;2022-07-06T05:39:21;102685.13;;;15.41;70.23
67099;BME280;54288;53.046;5.668;2022-07-06T05:41:49;102683.25;;;15.50;70.34
67099;BME280;54288;53.046;5.668;2022-07-06T05:44:15;102685.72;;;15.67;69.13
67099;BME280;54288;53.046;5.668;2022-07-06T05:46:41;102687.56;;;15.59;69.38
67099;BME280;54288;53.046;5.668;2022-07-06T05:49:07;102690.03;;;15.72;69.47
67099;BME280;54288;53.046;5.668;2022-07-06T05:51:52;102689.19;;;16.34;67.40
67099;BME280;54288;53.046;5.668;2022-07-06T05:54:19;102688.44;;;16.83;65.88
67099;BME280;54288;53.046;5.668;2022-07-06T05:56:46;102693.31;;;17.07;64.83
67099;BME280;54288;53.046;5.668;2022-07-06T05:59:12;102697.13;;;17.40;64.31
67099;BME280;54288;53.046;5.668;2022-07-06T06:01:38;102681.78;;;17.58;63.11
67099;BME280;54288;53.046;5.668;2022-07-06T06:04:15;102685.34;;;17.97;60.46
67099;BME280;54288;53.046;5.668;2022-07-06T06:06:41;102697.16;;;18.22;59.48
67099;BME280;54288;53.046;5.668;2022-07-06T06:09:08;102691.41;;;18.43;57.35
67099;BME280;54288;53.046;5.668;2022-07-06T06:11:34;102696.66;;;18.46;56.64
67099;BME280;54288;53.046;5.668;2022-07-06T06:14:00;102694.66;;;18.55;56.85
67099;BME280;54288;53.046;5.668;2022-07-06T06:16:26;102692.16;;;18.48;57.06
67099;BME280;54288;53.046;5.668;2022-07-06T06:18:52;102699.69;;;18.66;56.79
67099;BME280;54288;53.046;5.668;2022-07-06T06:21:18;102697.38;;;18.87;56.83
67099;BME280;54288;53.046;5.668;2022-07-06T06:23:44;102698.09;;;19.59;56.00
67099;BME280;54288;53.046;5.668;2022-07-06T06:26:10;102709.03;;;20.10;55.11
67099;BME280;54288;53.046;5.668;2022-07-06T06:28:36;102702.66;;;20.15;53.02
67099;BME280;54288;53.046;5.668;2022-07-06T06:31:02;102714.28;;;20.40;51.83
67099;BME280;54288;53.046;5.668;2022-07-06T06:33:28;102716.22;;;20.63;51.29
67099;BME280;54288;53.046;5.668;2022-07-06T06:35:54;102710.19;;;20.84;49.99
67099;BME280;54288;53.046;5.668;2022-07-06T06:38:22;102717.78;;;20.70;49.02
67099;BME280;54288;53.046;5.668;2022-07-06T06:40:48;102723.88;;;20.46;50.44
67099;BME280;54288;53.046;5.668;2022-07-06T06:43:14;102723.31;;;19.77;51.18
67099;BME280;54288;53.046;5.668;2022-07-06T06:46:15;102726.22;;;19.36;54.08
67099;BME280;54288;53.046;5.668;2022-07-06T06:48:41;102714.63;;;19.05;54.29
67099;BME280;54288;53.046;5.668;2022-07-06T06:51:07;102718.50;;;18.92;54.21
67099;BME280;54288;53.046;5.668;2022-07-06T06:53:33;102719.31;;;19.29;53.01
67099;BME280;54288;53.046;5.668;2022-07-06T06:55:58;102712.88;;;19.04;53.51
67099;BME280;54288;53.046;5.668;2022-07-06T06:58:24;102712.47;;;18.85;54.25
67099;BME280;54288;53.046;5.668;2022-07-06T07:00:50;102720.94;;;18.99;53.82
67099;BME280;54288;53.046;5.668;2022-07-06T07:03:16;102723.31;;;19.77;52.41
67099;BME280;54288;53.046;5.668;2022-07-06T07:05:42;102719.44;;;20.17;50.27
67099;BME280;54288;53.046;5.668;2022-07-06T07:08:08;102716.94;;;19.82;50.33
67099;BME280;54288;53.046;5.668;2022-07-06T07:10:33;102722.66;;;19.98;51.63
67099;BME280;54288;53.046;5.668;2022-07-06T07:12:59;102723.56;;;19.68;51.55
67099;BME280;54288;53.046;5.668;2022-07-06T07:15:25;102722.06;;;19.26;54.14
67099;BME280;54288;53.046;5.668;2022-07-06T07:17:51;102717.66;;;18.90;54.23
67099;BME280;54288;53.046;5.668;2022-07-06T07:20:17;102715.69;;;18.63;55.55
67099;BME280;54288;53.046;5.668;2022-07-06T07:22:43;102717.00;;;18.44;55.82
67099;BME280;54288;53.046;5.668;2022-07-06T07:25:09;102720.91;;;19.01;56.31
67099;BME280;54288;53.046;5.668;2022-07-06T07:27:35;102723.31;;;20.06;53.40
67099;BME280;54288;53.046;5.668;2022-07-06T07:30:00;102727.22;;;20.80;51.41
67099;BME280;54288;53.046;5.668;2022-07-06T07:32:26;102728.22;;;20.76;49.57
67099;BME280;54288;53.046;5.668;2022-07-06T07:34:52;102723.22;;;19.78;52.03
67099;BME280;54288;53.046;5.668;2022-07-06T07:37:17;102726.78;;;19.13;54.63
67099;BME280;54288;53.046;5.668;2022-07-06T07:39:43;102736.09;;;18.96;56.63
67099;BME280;54288;53.046;5.668;2022-07-06T07:42:09;102721.03;;;19.94;53.07
67099;BME280;54288;53.046;5.668;2022-07-06T07:44:35;102722.13;;;20.72;51.04
67099;BME280;54288;53.046;5.668;2022-07-06T07:47:00;102729.06;;;21.30;50.47
67099;BME280;54288;53.046;5.668;2022-07-06T07:49:26;102720.53;;;21.69;47.96
67099;BME280;54288;53.046;5.668;2022-07-06T07:51:52;102723.69;;;22.03;47.32
67099;BME280;54288;53.046;5.668;2022-07-06T07:54:17;102728.75;;;22.11;45.82
67099;BME280;54288;53.046;5.668;2022-07-06T07:56:43;102742.75;;;21.19;48.81
67099;BME280;54288;53.046;5.668;2022-07-06T07:59:09;102734.22;;;20.27;50.26
67099;BME280;54288;53.046;5.668;2022-07-06T08:01:37;102736.53;;;19.78;50.56
67099;BME280;54288;53.046;5.668;2022-07-06T08:04:03;102733.75;;;19.52;51.75
67099;BME280;54288;53.046;5.668;2022-07-06T08:06:28;102730.09;;;19.56;52.34
67099;BME280;54288;53.046;5.668;2022-07-06T08:08:54;102723.53;;;19.98;51.47
67099;BME280;54288;53.046;5.668;2022-07-06T08:11:20;102729.03;;;20.23;49.12
67099;BME280;54288;53.046;5.668;2022-07-06T08:13:46;102732.09;;;20.11;49.16
67099;BME280;54288;53.046;5.668;2022-07-06T08:16:13;102732.56;;;20.23;49.39
67099;BME280;54288;53.046;5.668;2022-07-06T08:18:39;102734.25;;;19.95;50.58
67099;BME280;54288;53.046;5.668;2022-07-06T08:21:06;102731.66;;;19.63;52.83
67099;BME280;54288;53.046;5.668;2022-07-06T08:23:31;102729.41;;;20.40;51.71
67099;BME280;54288;53.046;5.668;2022-07-06T08:26:01;102738.66;;;21.09;47.20
67099;BME280;54288;53.046;5.668;2022-07-06T08:28:27;102742.13;;;20.58;47.20
67099;BME280;54288;53.046;5.668;2022-07-06T08:30:53;102734.00;;;20.04;49.78
67099;BME280;54288;53.046;5.668;2022-07-06T08:33:20;102735.03;;;19.99;51.58
67099;BME280;54288;53.046;5.668;2022-07-06T08:35:46;102725.28;;;20.85;50.09
67099;BME280;54288;53.046;5.668;2022-07-06T08:38:11;102716.19;;;21.65;49.56
67099;BME280;54288;53.046;5.668;2022-07-06T08:40:40;102728.59;;;21.66;46.24
67099;BME280;54288;53.046;5.668;2022-07-06T08:43:07;102732.03;;;20.95;48.36
67099;BME280;54288;53.046;5.668;2022-07-06T08:45:37;102726.22;;;20.55;50.00
67099;BME280;54288;53.046;5.668;2022-07-06T08:48:06;102728.66;;;21.16;48.18
67099;BME280;54288;53.046;5.668;2022-07-06T08:50:34;102721.13;;;21.77;45.92
67099;BME280;54288;53.046;5.668;2022-07-06T08:53:00;102723.41;;;21.39;46.63
67099;BME280;54288;53.046;5.668;2022-07-06T08:55:27;102730.56;;;21.12;48.40
67099;BME280;54288;53.046;5.668;2022-07-06T08:57:55;102719.59;;;21.21;47.75
67099;BME280;54288;53.046;5.668;2022-07-06T09:00:23;102726.16;;;21.85;47.18
67099;BME280;54288;53.046;5.668;2022-07-06T09:02:51;102724.13;;;21.68;46.05
67099;BME280;54288;53.046;5.668;2022-07-06T09:05:21;102727.94;;;21.37;45.91
67099;BME280;54288;53.046;5.668;2022-07-06T09:07:52;102718.38;;;21.54;46.75
67099;BME280;54288;53.046;5.668;2022-07-06T09:10:20;102724.03;;;21.94;46.52
67099;BME280;54288;53.046;5.668;2022-07-06T09:12:46;102730.81;;;21.80;45.14
67099;BME280;54288;53.046;5.668;2022-07-06T09:15:12;102730.72;;;21.83;46.45
67099;BME280;54288;53.046;5.668;2022-07-06T09:17:42;102732.09;;;21.70;46.54
67099;BME280;54288;53.046;5.668;2022-07-06T09:20:09;102734.94;;;21.39;46.58
67099;BME280;54288;53.046;5.668;2022-07-06T09:22:36;102743.94;;;21.11;47.20
67099;BME280;54288;53.046;5.668;2022-07-06T09:25:11;102730.94;;;21.26;47.16
67099;BME280;54288;53.046;5.668;2022-07-06T09:27:39;102733.41;;;21.57;45.92
67099;BME280;54288;53.046;5.668;2022-07-06T09:30:08;102727.91;;;22.09;44.74
67099;BME280;54288;53.046;5.668;2022-07-06T09:32:41;102721.91;;;22.04;45.17
67099;BME280;54288;53.046;5.668;2022-07-06T09:35:29;102716.56;;;22.04;44.81
67099;BME280;54288;53.046;5.668;2022-07-06T09:38:13;102721.06;;;22.02;46.44
67099;BME280;54288;53.046;5.668;2022-07-06T09:40:41;102725.47;;;22.03;44.96
67099;BME280;54288;53.046;5.668;2022-07-06T09:43:11;102717.00;;;21.92;45.75
67099;BME280;54288;53.046;5.668;2022-07-06T09:45:39;102708.66;;;22.01;45.92
67099;BME280;54288;53.046;5.668;2022-07-06T09:48:31;102718.06;;;21.63;46.12
67099;BME280;54288;53.046;5.668;2022-07-06T09:51:01;102726.81;;;21.42;46.69
67099;BME280;54288;53.046;5.668;2022-07-06T09:53:35;102721.53;;;21.41;46.93
67099;BME280;54288;53.046;5.668;2022-07-06T09:56:01;102726.56;;;21.50;47.05
67099;BME280;54288;53.046;5.668;2022-07-06T09:58:28;102725.91;;;21.43;46.70
67099;BME280;54288;53.046;5.668;2022-07-06T10:00:54;102717.41;;;21.57;46.83
67099;BME280;54288;53.046;5.668;2022-07-06T10:03:20;102720.91;;;21.59;46.04
67099;BME280;54288;53.046;5.668;2022-07-06T10:05:47;102726.75;;;21.70;45.59
67099;BME280;54288;53.046;5.668;2022-07-06T10:08:16;102724.94;;;21.70;45.89
67099;BME280;54288;53.046;5.668;2022-07-06T10:10:43;102724.72;;;21.76;46.22
67099;BME280;54288;53.046;5.668;2022-07-06T10:13:10;102719.94;;;21.61;47.06
67099;BME280;54288;53.046;5.668;2022-07-06T10:15:38;102711.03;;;21.61;46.52
67099;BME280;54288;53.046;5.668;2022-07-06T10:18:06;102705.75;;;21.59;47.01
67099;BME280;54288;53.046;5.668;2022-07-06T10:20:35;102706.13;;;21.50;47.83
67099;BME280;54288;53.046;5.668;2022-07-06T10:23:05;102712.06;;;21.32;46.08
67099;BME280;54288;53.046;5.668;2022-07-06T10:25:33;102710.81;;;21.18;46.87
67099;BME280;54288;53.046;5.668;2022-07-06T10:27:59;102708.06;;;21.45;48.15
67099;BME280;54288;53.046;5.668;2022-07-06T10:30:28;102705.47;;;21.67;46.06
67099;BME280;54288;53.046;5.668;2022-07-06T10:32:56;102707.09;;;22.18;44.64
67099;BME280;54288;53.046;5.668;2022-07-06T10:35:23;102708.75;;;22.21;44.29
67099;BME280;54288;53.046;5.668;2022-07-06T10:38:06;102711.84;;;22.10;42.71
67099;BME280;54288;53.046;5.668;2022-07-06T10:40:37;102704.59;;;22.14;44.05
67099;BME280;54288;53.046;5.668;2022-07-06T10:43:21;102701.53;;;22.01;44.24
67099;BME280;54288;53.046;5.668;2022-07-06T10:50:54;102682.69;;;22.06;44.82
67099;BME280;54288;53.046;5.668;2022-07-06T10:53:40;102673.22;;;21.97;44.46
67099;BME280;54288;53.046;5.668;2022-07-06T10:56:08;102680.34;;;21.74;45.08
67099;BME280;54288;53.046;5.668;2022-07-06T10:58:49;102675.53;;;21.36;44.53
67099;BME280;54288;53.046;5.668;2022-07-06T11:01:21;102676.31;;;21.39;44.05
67099;BME280;54288;53.046;5.668;2022-07-06T11:04:06;102679.38;;;21.52;44.26
67099;BME280;54288;53.046;5.668;2022-07-06T11:06:37;102664.47;;;21.71;42.29
67099;BME280;54288;53.046;5.668;2022-07-06T11:09:11;102671.59;;;21.93;42.20
67099;BME280;54288;53.046;5.668;2022-07-06T11:11:40;102667.66;;;21.80;40.94
67099;BME280;54288;53.046;5.668;2022-07-06T11:14:11;102669.22;;;21.86;42.04
67099;BME280;54288;53.046;5.668;2022-07-06T11:16:58;102661.88;;;22.14;42.84
67099;BME280;54288;53.046;5.668;2022-07-06T11:19:26;102660.44;;;22.05;40.47
67099;BME280;54288;53.046;5.668;2022-07-06T11:21:55;102649.97;;;22.01;40.87
67099;BME280;54288;53.046;5.668;2022-07-06T11:24:31;102645.63;;;22.20;42.94
67099;BME280;54288;53.046;5.668;2022-07-06T11:26:58;102653.38;;;22.26;39.54
67099;BME280;54288;53.046;5.668;2022-07-06T11:29:27;102644.34;;;22.30;39.62
67099;BME280;54288;53.046;5.668;2022-07-06T11:31:55;102642.91;;;22.43;40.46
67099;BME280;54288;53.046;5.668;2022-07-06T11:34:29;102636.03;;;22.37;42.00
67099;BME280;54288;53.046;5.668;2022-07-06T11:36:58;102641.72;;;22.28;41.15
67099;BME280;54288;53.046;5.668;2022-07-06T11:39:28;102636.69;;;22.44;39.99
67099;BME280;54288;53.046;5.668;2022-07-06T11:41:54;102641.50;;;22.56;40.12
67099;BME280;54288;53.046;5.668;2022-07-06T11:44:21;102640.19;;;22.44;38.88
67099;BME280;54288;53.046;5.668;2022-07-06T11:46:47;102642.56;;;22.52;40.34
67099;BME280;54288;53.046;5.668;2022-07-06T11:49:13;102642.06;;;22.64;40.08
67099;BME280;54288;53.046;5.668;2022-07-06T11:51:41;102629.72;;;22.81;40.54
67099;BME280;54288;53.046;5.668;2022-07-06T11:54:11;102639.56;;;23.01;40.53
67099;BME280;54288;53.046;5.668;2022-07-06T11:56:37;102640.47;;;23.00;39.55
67099;BME280;54288;53.046;5.668;2022-07-06T11:59:03;102634.50;;;22.95;40.46
67099;BME280;54288;53.046;5.668;2022-07-06T12:01:31;102635.94;;;23.02;40.78
67099;BME280;54288;53.046;5.668;2022-07-06T12:04:01;102637.56;;;23.26;41.32
67099;BME280;54288;53.046;5.668;2022-07-06T12:06:33;102636.13;;;23.19;39.78
67099;BME280;54288;53.046;5.668;2022-07-06T12:09:00;102637.28;;;22.92;39.93
67099;BME280;54288;53.046;5.668;2022-07-06T12:11:33;102646.13;;;22.72;39.71
67099;BME280;54288;53.046;5.668;2022-07-06T12:14:19;102629.88;;;22.57;39.88
67099;BME280;54288;53.046;5.668;2022-07-06T12:16:47;102628.22;;;22.33;41.70
67099;BME280;54288;53.046;5.668;2022-07-06T12:19:13;102618.06;;;22.41;41.55
67099;BME280;54288;53.046;5.668;2022-07-06T12:21:47;102625.81;;;22.48;40.72
67099;BME280;54288;53.046;5.668;2022-07-06T12:24:25;102630.63;;;22.60;40.74
67099;BME280;54288;53.046;5.668;2022-07-06T12:26:53;102625.78;;;22.90;41.79
67099;BME280;54288;53.046;5.668;2022-07-06T12:29:19;102614.38;;;22.86;40.63
67099;BME280;54288;53.046;5.668;2022-07-06T12:31:53;102615.69;;;22.76;39.79
67099;BME280;54288;53.046;5.668;2022-07-06T12:34:29;102602.06;;;22.82;41.80
67099;BME280;54288;53.046;5.668;2022-07-06T12:37:07;102612.75;;;23.02;40.82
67099;BME280;54288;53.046;5.668;2022-07-06T12:39:42;102610.56;;;22.92;40.54
67099;BME280;54288;53.046;5.668;2022-07-06T12:42:08;102597.47;;;22.86;41.67
67099;BME280;54288;53.046;5.668;2022-07-06T12:44:42;102599.00;;;22.71;40.48
67099;BME280;54288;53.046;5.668;2022-07-06T12:47:09;102594.66;;;22.69;42.53
67099;BME280;54288;53.046;5.668;2022-07-06T12:49:37;102601.38;;;22.57;43.03
67099;BME280;54288;53.046;5.668;2022-07-06T12:54:35;102577.31;;;22.57;43.16
67099;BME280;54288;53.046;5.668;2022-07-06T12:57:25;102595.69;;;22.65;44.41
67099;BME280;54288;53.046;5.668;2022-07-06T12:59:55;102590.22;;;22.48;43.90
67099;BME280;54288;53.046;5.668;2022-07-06T13:02:34;102589.38;;;22.67;43.90